createdAt,value
2023-11-23T00:01:38.659Z,9.43
2023-11-23T00:04:05.813Z,12.77
2023-11-23T00:06:32.820Z,10.55
2023-11-23T00:08:59.786Z,11.55
2023-11-23T00:11:26.727Z,10.95
2023-11-23T00:13:53.610Z,10.40
2023-11-23T00:16:20.499Z,11.25
2023-11-23T00:18:47.488Z,13.43
2023-11-23T00:21:14.488Z,18.90
2023-11-23T00:23:41.403Z,20.20
2023-11-23T00:26:08.364Z,14.90
2023-11-23T00:28:35.237Z,10.30
2023-11-23T00:31:02.176Z,12.00
2023-11-23T00:33:29.165Z,13.20
2023-11-23T00:35:56.188Z,10.65
2023-11-23T00:38:23.107Z,10.32
2023-11-23T00:40:49.999Z,13.85
2023-11-23T00:43:16.897Z,12.43
2023-11-23T00:45:43.818Z,12.15
2023-11-23T00:48:10.829Z,12.80
2023-11-23T00:50:37.805Z,15.30
2023-11-23T00:53:04.735Z,13.30
2023-11-23T00:55:31.641Z,11.25
2023-11-23T00:57:58.504Z,13.02
2023-11-23T01:00:25.528Z,11.13
2023-11-23T01:02:52.601Z,13.07
2023-11-23T01:05:19.720Z,10.77
2023-11-23T01:07:46.619Z,11.48
2023-11-23T01:10:13.764Z,10.20
2023-11-23T01:12:40.641Z,10.30
2023-11-23T01:15:08.390Z,9.40
2023-11-23T01:17:35.336Z,10.13
2023-11-23T01:20:02.306Z,9.52
2023-11-23T01:22:29.241Z,10.32
2023-11-23T01:24:56.199Z,10.20
2023-11-23T01:27:23.099Z,11.80
2023-11-23T01:29:50.102Z,11.90
2023-11-23T01:32:16.998Z,10.95
2023-11-23T01:34:43.970Z,10.48
2023-11-23T01:37:10.858Z,10.40
2023-11-23T01:39:37.820Z,11.15
2023-11-23T01:42:05.017Z,12.48
2023-11-23T01:44:31.957Z,13.65
2023-11-23T01:46:58.888Z,14.57
2023-11-23T01:49:25.894Z,12.90
2023-11-23T01:51:52.903Z,10.35
2023-11-23T01:54:19.883Z,10.07
2023-11-23T01:56:48.484Z,13.32
2023-11-23T01:59:15.495Z,10.55
2023-11-23T02:01:42.803Z,10.20
2023-11-23T02:04:10.408Z,12.20
2023-11-23T02:06:37.756Z,10.95
2023-11-23T02:09:05.129Z,11.90
2023-11-23T02:11:32.077Z,10.95
2023-11-23T02:13:58.985Z,11.70
2023-11-23T02:16:26.027Z,14.13
2023-11-23T02:18:52.981Z,18.33
2023-11-23T02:21:19.921Z,19.13
2023-11-23T02:23:46.873Z,14.70
2023-11-23T02:26:13.835Z,16.42
2023-11-23T02:28:40.717Z,16.90
2023-11-23T02:31:07.716Z,11.40
2023-11-23T02:33:34.804Z,12.60
2023-11-23T02:36:01.888Z,10.80
2023-11-23T02:38:28.814Z,11.02
2023-11-23T02:40:55.806Z,11.05
2023-11-23T02:43:22.737Z,14.70
2023-11-23T02:45:49.725Z,11.48
2023-11-23T02:48:16.753Z,12.43
2023-11-23T02:50:43.861Z,12.68
2023-11-23T02:53:10.806Z,13.95
2023-11-23T02:55:37.797Z,10.05
2023-11-23T02:58:04.745Z,12.23
2023-11-23T03:00:31.693Z,11.68
2023-11-23T03:02:58.655Z,10.70
2023-11-23T03:05:25.646Z,10.40
2023-11-23T03:07:52.634Z,11.45
2023-11-23T03:10:19.621Z,9.82
2023-11-23T03:12:46.522Z,11.30
2023-11-23T03:15:13.498Z,11.60
2023-11-23T03:17:40.535Z,12.45
2023-11-23T03:20:08.125Z,9.45
2023-11-23T03:22:35.066Z,11.75
2023-11-23T03:25:02.044Z,12.30
2023-11-23T03:27:29.006Z,11.65
2023-11-23T03:29:56.102Z,12.20
2023-11-23T03:32:23.006Z,11.95
2023-11-23T03:34:49.964Z,10.95
2023-11-23T03:37:16.954Z,13.07
2023-11-23T03:39:43.888Z,12.25
2023-11-23T03:42:10.834Z,12.50
2023-11-23T03:44:37.721Z,11.75
2023-11-23T03:47:05.103Z,11.45
2023-11-23T03:49:32.015Z,11.70
2023-11-23T03:51:58.949Z,11.73
2023-11-23T03:54:26.009Z,11.75
2023-11-23T03:56:52.988Z,8.68
2023-11-23T03:59:19.988Z,22.17
2023-11-23T04:01:48.080Z,10.50
2023-11-23T04:04:15.280Z,12.02
2023-11-23T04:06:42.314Z,8.75
2023-11-23T04:09:09.383Z,9.63
2023-11-23T04:11:36.363Z,10.38
2023-11-23T04:14:03.339Z,8.07
2023-11-23T04:16:30.246Z,11.40
2023-11-23T04:18:57.210Z,9.32
2023-11-23T04:21:24.155Z,8.90
2023-11-23T04:23:51.127Z,10.63
2023-11-23T04:26:18.139Z,10.32
2023-11-23T04:28:45.093Z,12.00
2023-11-23T04:31:12.049Z,15.50
2023-11-23T04:33:39.199Z,11.60
2023-11-23T04:36:06.462Z,15.93
2023-11-23T04:38:33.453Z,12.77
2023-11-23T04:41:01.395Z,9.93
2023-11-23T04:43:28.341Z,10.60
2023-11-23T04:45:55.280Z,11.25
2023-11-23T04:48:22.271Z,8.18
2023-11-23T04:50:49.316Z,8.75
2023-11-23T04:53:16.214Z,7.88
2023-11-23T04:55:43.124Z,7.93
2023-11-23T04:58:10.043Z,9.52
2023-11-23T05:00:37.304Z,12.77
2023-11-23T05:03:04.424Z,9.00
2023-11-23T05:05:31.390Z,11.25
2023-11-23T05:07:58.347Z,9.05
2023-11-23T05:10:25.323Z,11.77
2023-11-23T05:12:52.327Z,11.80
2023-11-23T05:15:19.384Z,10.32
2023-11-23T05:17:46.562Z,11.57
2023-11-23T05:20:13.585Z,10.25
2023-11-23T05:22:40.535Z,10.90
2023-11-23T05:25:08.033Z,9.88
2023-11-23T05:27:35.024Z,11.35
2023-11-23T05:30:02.046Z,12.30
2023-11-23T05:32:29.045Z,12.15
2023-11-23T05:34:56.001Z,11.73
2023-11-23T05:37:22.931Z,8.43
2023-11-23T05:39:50.131Z,9.63
2023-11-23T05:42:17.148Z,11.65
2023-11-23T05:44:44.082Z,11.30
2023-11-23T05:47:11.055Z,12.93
2023-11-23T05:49:38.134Z,10.27
2023-11-23T05:52:05.679Z,11.85
2023-11-23T05:54:32.714Z,9.95
2023-11-23T05:56:59.706Z,8.48
2023-11-23T05:59:26.670Z,7.75
2023-11-23T06:01:53.606Z,6.70
2023-11-23T06:04:20.734Z,9.40
2023-11-23T06:06:47.725Z,7.82
2023-11-23T06:09:14.724Z,7.38
2023-11-23T06:11:41.657Z,6.50
2023-11-23T06:14:13.696Z,7.32
2023-11-23T06:16:45.606Z,9.38
2023-11-23T06:19:12.669Z,8.43
2023-11-23T06:21:39.593Z,8.75
2023-11-23T06:24:07.569Z,7.50
2023-11-23T06:26:34.566Z,7.00
2023-11-23T06:29:01.570Z,7.35
2023-11-23T06:31:28.563Z,8.25
2023-11-23T06:33:55.619Z,7.97
2023-11-23T06:36:22.591Z,6.70
2023-11-23T06:38:49.678Z,8.20
2023-11-23T06:41:21.278Z,8.30
2023-11-23T06:43:49.892Z,7.95
2023-11-23T06:46:20.829Z,7.75
2023-11-23T06:48:47.986Z,7.85
2023-11-23T06:51:15.149Z,8.70
2023-11-23T06:53:42.254Z,7.72
2023-11-23T06:56:16.834Z,6.35
2023-11-23T06:58:47.405Z,8.00
2023-11-23T07:01:14.530Z,8.85
2023-11-23T07:03:41.732Z,8.13
2023-11-23T07:06:09.033Z,7.50
2023-11-23T07:08:36.675Z,9.98
2023-11-23T07:11:04.131Z,8.80
2023-11-23T07:13:31.863Z,7.22
2023-11-23T07:15:59.567Z,8.68
2023-11-23T07:18:30.221Z,7.30
2023-11-23T07:20:57.325Z,7.82
2023-11-23T07:23:24.286Z,6.93
2023-11-23T07:25:51.344Z,7.07
2023-11-23T07:28:18.343Z,9.70
2023-11-23T07:30:45.609Z,9.80
2023-11-23T07:33:12.779Z,7.32
2023-11-23T07:35:39.848Z,9.18
2023-11-23T07:38:06.939Z,9.98
2023-11-23T07:40:33.881Z,8.27
2023-11-23T07:43:00.873Z,8.43
2023-11-23T07:45:27.818Z,9.35
2023-11-23T07:47:54.862Z,8.98
2023-11-23T07:50:21.859Z,8.13
2023-11-23T07:52:48.741Z,5.65
2023-11-23T07:55:15.919Z,8.88
2023-11-23T07:57:44.239Z,10.15
2023-11-23T08:00:11.974Z,8.32
2023-11-23T08:02:38.899Z,8.82
2023-11-23T08:05:06.664Z,9.35
2023-11-23T08:07:33.635Z,54.55
2023-11-23T08:10:00.593Z,61.75
2023-11-23T08:12:27.586Z,39.53
2023-11-23T08:14:54.569Z,14.73
2023-11-23T08:17:21.456Z,7.95
2023-11-23T08:19:48.463Z,7.10
2023-11-23T08:22:15.449Z,8.25
2023-11-23T08:24:42.410Z,6.15
2023-11-23T08:27:09.390Z,9.30
2023-11-23T08:29:36.338Z,7.13
2023-11-23T08:32:03.316Z,8.63
2023-11-23T08:34:30.317Z,6.00
2023-11-23T08:36:57.269Z,6.47
2023-11-23T08:39:24.270Z,7.70
2023-11-23T08:41:51.173Z,6.15
2023-11-23T08:44:18.105Z,6.95
2023-11-23T08:46:45.245Z,7.20
2023-11-23T08:49:12.246Z,7.07
2023-11-23T08:51:39.874Z,8.63
2023-11-23T08:54:07.270Z,7.22
2023-11-23T08:56:34.312Z,6.20
2023-11-23T08:59:01.339Z,6.95
2023-11-23T09:01:28.318Z,8.18
2023-11-23T09:03:56.248Z,6.55
2023-11-23T09:06:23.667Z,11.27
2023-11-23T09:08:50.700Z,6.20
2023-11-23T09:11:17.805Z,6.65
2023-11-23T09:13:44.810Z,8.20
2023-11-23T09:16:11.850Z,5.25
2023-11-23T09:18:39.342Z,7.50
2023-11-23T09:21:07.150Z,6.35
2023-11-23T09:23:34.133Z,4.60
2023-11-23T09:26:01.043Z,6.38
2023-11-23T09:28:28.034Z,5.75
2023-11-23T09:30:54.943Z,4.82
2023-11-23T09:33:23.314Z,5.70
2023-11-23T09:35:51.233Z,6.60
2023-11-23T09:38:18.197Z,7.10
2023-11-23T09:40:45.230Z,5.68
2023-11-23T09:43:12.165Z,5.75
2023-11-23T09:45:39.158Z,7.88
2023-11-23T09:48:06.370Z,5.82
2023-11-23T09:50:37.145Z,7.32
2023-11-23T09:53:07.422Z,6.60
2023-11-23T09:55:34.365Z,9.38
2023-11-23T09:58:01.304Z,11.07
2023-11-23T10:00:28.397Z,9.20
2023-11-23T10:02:55.427Z,7.13
2023-11-23T10:05:23.283Z,6.65
2023-11-23T10:07:50.141Z,5.10
2023-11-23T10:10:17.250Z,5.90
2023-11-23T10:12:44.483Z,6.43
2023-11-23T10:15:11.632Z,4.75
2023-11-23T10:17:42.019Z,5.55
2023-11-23T10:20:13.763Z,4.68
2023-11-23T10:22:47.954Z,8.25
2023-11-23T10:25:30.486Z,11.38
2023-11-23T10:27:57.414Z,9.57
2023-11-23T10:30:26.103Z,5.88
2023-11-23T10:33:00.723Z,5.63
2023-11-23T10:35:42.495Z,4.63
2023-11-23T10:38:09.628Z,5.50
2023-11-23T10:40:36.761Z,5.63
2023-11-23T10:43:04.375Z,5.22
2023-11-23T10:45:33.706Z,6.75
2023-11-23T10:48:02.712Z,4.45
2023-11-23T10:50:29.743Z,4.90
2023-11-23T10:52:56.940Z,4.30
2023-11-23T10:55:24.011Z,5.68
2023-11-23T10:58:20.232Z,7.32
2023-11-23T11:00:47.207Z,5.47
2023-11-23T11:03:14.171Z,6.88
2023-11-23T11:05:41.072Z,6.05
2023-11-23T11:08:08.253Z,6.38
2023-11-23T11:10:49.316Z,6.47
2023-11-23T11:13:17.732Z,6.80
2023-11-23T11:15:58.621Z,10.85
2023-11-23T11:18:29.143Z,9.57
2023-11-23T11:21:14.026Z,10.40
2023-11-23T11:23:42.451Z,8.05
2023-11-23T11:26:24.852Z,6.63
2023-11-23T11:29:02.647Z,6.80
2023-11-23T11:31:42.277Z,4.97
2023-11-23T11:34:22.536Z,4.88
2023-11-23T11:37:01.300Z,4.97
2023-11-23T11:39:32.061Z,6.22
2023-11-23T11:42:00.127Z,5.50
2023-11-23T11:44:27.746Z,7.90
2023-11-23T11:46:54.766Z,5.80
2023-11-23T11:49:21.663Z,7.07
2023-11-23T11:51:48.648Z,4.55
2023-11-23T11:54:15.528Z,5.05
2023-11-23T11:56:42.478Z,6.18
2023-11-23T11:59:12.767Z,6.75
2023-11-23T12:01:39.800Z,5.97
2023-11-23T12:04:06.901Z,5.07
2023-11-23T12:06:33.923Z,7.75
2023-11-23T12:09:00.896Z,6.82
2023-11-23T12:11:30.270Z,5.10
2023-11-23T12:13:59.109Z,6.22
2023-11-23T12:16:36.490Z,7.47
2023-11-23T12:19:19.591Z,6.72
2023-11-23T12:21:56.738Z,6.57
2023-11-23T12:24:24.460Z,6.45
2023-11-23T12:26:54.497Z,6.80
2023-11-23T12:29:26.012Z,5.45
2023-11-23T12:31:53.264Z,6.07
2023-11-23T12:34:20.397Z,6.85
2023-11-23T12:36:48.656Z,7.28
2023-11-23T12:39:15.639Z,6.78
2023-11-23T12:41:49.764Z,6.80
2023-11-23T12:44:21.672Z,6.63
2023-11-23T12:46:48.805Z,5.30
2023-11-23T12:49:15.725Z,5.95
2023-11-23T12:51:42.976Z,6.85
2023-11-23T12:54:10.019Z,6.35
2023-11-23T12:56:37.032Z,8.00
2023-11-23T12:59:03.933Z,6.30
2023-11-23T13:01:30.889Z,4.70
2023-11-23T13:03:58.003Z,6.55
2023-11-23T13:06:24.992Z,5.78
2023-11-23T13:08:51.902Z,5.95
2023-11-23T13:11:18.809Z,6.53
2023-11-23T13:13:45.736Z,6.18
2023-11-23T13:16:12.647Z,7.80
2023-11-23T13:18:58.146Z,7.80
2023-11-23T13:21:27.221Z,8.52
2023-11-23T13:23:54.356Z,6.93
2023-11-23T13:26:21.301Z,6.72
2023-11-23T13:28:48.202Z,7.38
2023-11-23T13:31:15.139Z,6.20
2023-11-23T13:33:42.097Z,6.32
2023-11-23T13:36:09.820Z,7.22
2023-11-23T13:38:36.717Z,6.88
2023-11-23T13:41:03.598Z,7.07
2023-11-23T13:43:30.583Z,8.63
2023-11-23T13:45:57.830Z,11.88
2023-11-23T13:48:24.969Z,14.25
2023-11-23T13:50:51.957Z,8.50
2023-11-23T13:53:18.876Z,6.75
2023-11-23T13:55:45.835Z,7.07
2023-11-23T13:58:12.761Z,9.55
2023-11-23T14:00:39.830Z,7.50
2023-11-23T14:03:06.830Z,7.35
2023-11-23T14:05:33.860Z,7.00
2023-11-23T14:08:00.779Z,8.52
2023-11-23T14:10:27.715Z,7.18
2023-11-23T14:12:54.787Z,7.68
2023-11-23T14:15:21.775Z,7.57
2023-11-23T14:17:51.947Z,8.25
2023-11-23T14:20:18.958Z,8.00
2023-11-23T14:22:46.975Z,6.60
2023-11-23T14:25:14.828Z,7.53
2023-11-23T14:27:41.769Z,7.57
2023-11-23T14:30:09.624Z,7.78
2023-11-23T14:32:36.542Z,7.93
2023-11-23T14:35:03.829Z,7.93
2023-11-23T14:37:30.735Z,8.55
2023-11-23T14:39:57.688Z,8.10
2023-11-23T14:42:24.669Z,9.70
2023-11-23T14:44:51.629Z,9.07
2023-11-23T14:47:18.509Z,8.40
2023-11-23T14:49:45.472Z,8.27
2023-11-23T14:52:12.949Z,8.23
2023-11-23T14:54:40.003Z,9.38
2023-11-23T14:57:07.321Z,9.52
2023-11-23T14:59:37.184Z,11.18
2023-11-23T15:02:04.339Z,9.05
2023-11-23T15:04:31.443Z,8.05
2023-11-23T15:06:58.372Z,8.55
2023-11-23T15:09:26.894Z,8.15
2023-11-23T15:11:54.982Z,9.15
2023-11-23T15:14:21.907Z,9.93
2023-11-23T15:16:49.228Z,10.82
2023-11-23T15:19:16.139Z,8.10
2023-11-23T15:21:43.106Z,10.95
2023-11-23T15:24:13.413Z,9.00
2023-11-23T15:26:40.369Z,9.98
2023-11-23T15:29:07.288Z,8.75
2023-11-23T15:31:34.172Z,7.70
2023-11-23T15:34:01.127Z,9.25
2023-11-23T15:36:28.102Z,12.07
2023-11-23T15:38:55.046Z,14.80
2023-11-23T15:41:21.995Z,15.65
2023-11-23T15:43:48.990Z,21.98
2023-11-23T15:46:15.943Z,21.27
2023-11-23T15:48:42.908Z,18.17
2023-11-23T15:51:09.899Z,26.27
2023-11-23T15:53:36.826Z,32.33
2023-11-23T15:56:03.817Z,26.92
2023-11-23T15:58:30.740Z,34.33
2023-11-23T16:00:57.671Z,35.03
2023-11-23T16:03:24.678Z,59.47
2023-11-23T16:05:51.680Z,61.40
2023-11-23T16:08:18.638Z,54.38
2023-11-23T16:10:45.559Z,47.53
2023-11-23T16:13:12.476Z,48.58
2023-11-23T16:15:39.440Z,53.10
2023-11-23T16:18:06.537Z,50.13
2023-11-23T16:20:33.525Z,43.67
2023-11-23T16:23:00.454Z,51.95
2023-11-23T16:25:27.544Z,42.05
2023-11-23T16:27:54.582Z,40.88
2023-11-23T16:30:21.715Z,39.05
2023-11-23T16:32:49.887Z,40.65
2023-11-23T16:35:16.886Z,37.53
2023-11-23T16:37:43.810Z,36.17
2023-11-23T16:40:11.235Z,29.85
2023-11-23T16:42:42.420Z,25.55
2023-11-23T16:45:10.814Z,26.33
2023-11-23T16:47:37.777Z,26.92
2023-11-23T16:50:05.245Z,26.52
2023-11-23T16:52:32.203Z,28.13
2023-11-23T16:54:59.163Z,24.20
2023-11-23T16:57:26.078Z,24.67
2023-11-23T16:59:53.007Z,21.70
2023-11-23T17:02:20.070Z,24.02
2023-11-23T17:04:47.779Z,19.10
2023-11-23T17:07:15.427Z,19.33
2023-11-23T17:09:42.530Z,14.77
2023-11-23T17:12:09.692Z,15.00
2023-11-23T17:14:36.578Z,11.60
2023-11-23T17:17:06.847Z,12.00
2023-11-23T17:19:33.809Z,15.95
2023-11-23T17:22:07.148Z,11.45
2023-11-23T17:24:34.115Z,11.15
2023-11-23T17:27:01.035Z,12.00
2023-11-23T17:29:27.970Z,10.65
2023-11-23T17:31:54.843Z,12.95
2023-11-23T17:34:21.905Z,13.27
2023-11-23T17:36:48.850Z,10.40
2023-11-23T17:39:15.808Z,17.75
2023-11-23T17:41:48.824Z,14.38
2023-11-23T17:44:15.785Z,14.00
2023-11-23T17:46:42.799Z,15.20
2023-11-23T17:49:09.788Z,16.65
2023-11-23T17:51:37.375Z,15.18
2023-11-23T17:54:04.354Z,13.98
2023-11-23T17:56:33.548Z,16.95
2023-11-23T17:59:08.899Z,23.83
2023-11-23T18:01:47.712Z,21.67
2023-11-23T18:04:14.679Z,21.33
2023-11-23T18:06:41.684Z,19.40
2023-11-23T18:09:09.544Z,19.30
2023-11-23T18:11:37.144Z,18.75
2023-11-23T18:14:04.088Z,18.33
2023-11-23T18:16:31.081Z,16.98
2023-11-23T18:18:58.042Z,18.40
2023-11-23T18:21:25.041Z,19.98
2023-11-23T18:23:51.979Z,19.65
2023-11-23T18:26:18.917Z,21.58
2023-11-23T18:28:45.857Z,19.08
2023-11-23T18:31:12.814Z,21.27
2023-11-23T18:33:39.791Z,23.60
2023-11-23T18:36:07.130Z,21.15
2023-11-23T18:38:35.574Z,17.60
2023-11-23T18:41:03.983Z,106.22
2023-11-23T18:43:31.321Z,52.55
2023-11-23T18:45:58.565Z,34.33
2023-11-23T18:48:25.617Z,26.10
2023-11-23T18:50:52.590Z,23.17
2023-11-23T18:53:19.475Z,25.65
2023-11-23T18:55:47.508Z,21.02
2023-11-23T18:58:14.362Z,27.33
2023-11-23T19:00:41.326Z,23.35
2023-11-23T19:03:08.323Z,24.40
2023-11-23T19:05:35.321Z,24.25
2023-11-23T19:08:02.861Z,22.95
2023-11-23T19:10:29.798Z,20.92
2023-11-23T19:13:03.690Z,26.25
2023-11-23T19:15:33.464Z,20.52
2023-11-23T19:18:00.914Z,25.17
2023-11-23T19:20:28.130Z,25.92
2023-11-23T19:22:55.451Z,23.58
2023-11-23T19:25:26.150Z,21.77
2023-11-23T19:27:56.100Z,21.80
2023-11-23T19:30:24.158Z,25.23
2023-11-23T19:32:52.149Z,24.95
2023-11-23T19:35:23.062Z,29.30
2023-11-23T19:37:50.490Z,24.67
2023-11-23T19:40:17.810Z,25.73
2023-11-23T19:42:45.227Z,26.88
2023-11-23T19:45:13.304Z,26.58
2023-11-23T19:47:40.516Z,23.17
2023-11-23T19:50:08.630Z,27.23
2023-11-23T19:52:35.902Z,25.40
2023-11-23T19:55:02.769Z,26.67
2023-11-23T19:57:29.742Z,24.73
2023-11-23T19:59:56.665Z,28.92
2023-11-23T20:02:23.638Z,29.00
2023-11-23T20:04:50.567Z,27.08
2023-11-23T20:07:17.541Z,25.17
2023-11-23T20:09:44.558Z,25.58
2023-11-23T20:12:11.582Z,21.85
2023-11-23T20:14:38.678Z,22.25
2023-11-23T20:17:05.872Z,26.35
2023-11-23T20:19:32.822Z,26.67
2023-11-23T20:21:59.738Z,26.15
2023-11-23T20:24:26.656Z,25.10
2023-11-23T20:26:53.623Z,28.00
2023-11-23T20:29:20.885Z,26.08
2023-11-23T20:31:47.798Z,26.15
2023-11-23T20:34:14.838Z,31.65
2023-11-23T20:36:44.819Z,36.53
2023-11-23T20:39:11.718Z,28.20
2023-11-23T20:41:38.645Z,33.45
2023-11-23T20:44:06.059Z,31.30
2023-11-23T20:46:33.076Z,40.67
2023-11-23T20:49:02.791Z,30.45
2023-11-23T20:51:31.122Z,25.02
2023-11-23T20:54:00.541Z,22.73
2023-11-23T20:56:27.974Z,27.58
2023-11-23T20:58:55.402Z,22.73
2023-11-23T21:01:22.960Z,25.42
2023-11-23T21:03:50.549Z,23.95
2023-11-23T21:06:18.159Z,21.45
2023-11-23T21:08:45.892Z,20.80
2023-11-23T21:11:12.891Z,28.83
2023-11-23T21:13:39.928Z,27.83
2023-11-23T21:16:07.581Z,29.65
2023-11-23T21:18:34.835Z,29.90
2023-11-23T21:21:01.921Z,23.67
2023-11-23T21:23:28.902Z,24.52
2023-11-23T21:25:55.960Z,25.98
2023-11-23T21:28:22.872Z,25.25
2023-11-23T21:30:49.924Z,23.30
2023-11-23T21:33:16.964Z,29.42
2023-11-23T21:35:44.176Z,24.48
2023-11-23T21:38:11.230Z,28.60
2023-11-23T21:40:38.215Z,26.98
2023-11-23T21:43:05.398Z,23.67
2023-11-23T21:45:32.430Z,24.27
2023-11-23T21:47:59.409Z,20.13
2023-11-23T21:50:26.563Z,24.63
2023-11-23T21:52:55.164Z,25.75
2023-11-23T21:55:22.431Z,25.88
2023-11-23T21:57:49.469Z,26.35
2023-11-23T22:00:16.754Z,25.60
2023-11-23T22:02:43.874Z,27.80
2023-11-23T22:07:49.500Z,32.33
2023-11-23T22:10:16.667Z,29.38
2023-11-23T22:12:43.631Z,28.58
2023-11-23T22:15:11.145Z,31.38
2023-11-23T22:17:38.623Z,30.90
2023-11-23T22:20:06.567Z,32.00
2023-11-23T22:22:33.922Z,33.42
2023-11-23T22:25:01.162Z,35.30
2023-11-23T22:27:28.534Z,36.05
2023-11-23T22:29:55.884Z,31.77
2023-11-23T22:32:22.907Z,27.27
2023-11-23T22:34:50.221Z,28.67
2023-11-23T22:37:17.386Z,26.20
2023-11-23T22:39:44.691Z,29.00
2023-11-23T22:42:12.361Z,28.75
2023-11-23T22:44:39.796Z,26.08
2023-11-23T22:47:07.438Z,28.35
2023-11-23T22:49:34.418Z,24.00
2023-11-23T22:52:01.327Z,25.48
2023-11-23T22:54:28.342Z,24.23
2023-11-23T22:56:55.294Z,21.52
2023-11-23T22:59:22.220Z,27.05
2023-11-23T23:01:49.437Z,21.45
2023-11-23T23:04:16.485Z,24.30
2023-11-23T23:06:43.652Z,23.38
2023-11-23T23:09:10.681Z,20.73
2023-11-23T23:11:37.577Z,24.73
2023-11-23T23:14:05.741Z,20.55
2023-11-23T23:16:32.707Z,21.05
2023-11-23T23:18:59.703Z,25.00
2023-11-23T23:21:26.693Z,24.92
2023-11-23T23:23:53.681Z,26.48
2023-11-23T23:26:20.633Z,24.42
2023-11-23T23:28:47.578Z,26.88
2023-11-23T23:31:14.539Z,25.05
2023-11-23T23:33:41.573Z,21.20
2023-11-23T23:36:09.103Z,26.75
2023-11-23T23:38:36.010Z,24.23
2023-11-23T23:41:02.957Z,24.70
2023-11-23T23:43:29.873Z,21.08
2023-11-23T23:45:56.790Z,25.13
2023-11-23T23:48:23.764Z,26.27
2023-11-23T23:50:50.783Z,22.73
2023-11-23T23:53:17.756Z,25.08
2023-11-23T23:55:44.696Z,22.40
2023-11-23T23:58:11.669Z,22.70
